Kernville, CA (93238)

2:36 PM PDT on July 25, 2016 (GMT -0700)
Kernwood Ranches | | Change Station

Elev 2910 ft 35.74 °N, 118.43 °W | Updated 7 minutes ago

Mostly Cloudy
Mostly Cloudy
112.6 °F
Feels Like 107 °F
N
2.2
Wind Variable Wind from SE

Today
High -- | Low -- °F
--% Chance of Precip.
Yesterday
High -- | Low -- °F
Precip. -- in
Pressure 29.80 in
Visibility 10.0 miles
Clouds Mostly Cloudy 20000 ft
Heat Index 107 °F
Dew Point 40 °F
Humidity 9%
Rainfall 0.00 in
Snow Depth Not available.
5:56 AM 8:03 PM
Waning Gibbous, 62% visible
METAR KNID 252056Z COR 17016G24KT 10SM BKN200 42/01 A2989 RMK AO2 SLP089 FU BKN200 T04220006 58017 $
Pressure 29.80 in
Visibility 10.0 miles
Clouds Mostly Cloudy 20000 ft
Heat Index 107 °F
Dew Point 40 °F
Humidity 9%
Rainfall 0.00 in
Snow Depth Not available.
5:56 AM 8:03 PM
Waning Gibbous, 62% visible
METAR KNID 252056Z COR 17016G24KT 10SM BKN200 42/01 A2989 RMK AO2 SLP089 FU BKN200 T04220006 58017 $

10-Day Weather Forecast

Almanac

Astronomy

Jul. 25, 2016 Rise Set
Actual Time
Civil Twilight
Nautical Twilight
Astronomical Twilight
Moon
Length of Visible Light
Length of Day
Tomorrow will be .
, % of the Moon is Illuminated

Today's Extremes

State Highs State Lows

Community

WunderPhotos

Upload Photos

1,927,423 photos uploaded!

WunderBlog® & News

Nearby

Air Quality

  Air Quality AQ Index Pollutant
Not available.

Snow Depth

Station Depth Elevation

Earthquake Activity

City Distance Mag. Time & Date
Minimum magnitude displayed is 2.5.

Coastal Water Temperatures

Place Temperature

Stations

Nearby Weather Stations

Station Location Temp. Windchill Dew Point Humidity Wind Precip. Elev Updated Type
                   

Watches & Warnings

There are currently no watches in effect.